sensor_id;sensor_type;location;lat;lon;timestamp;temperature;humidity
7970;DHT22;4030;52.362;9.206;2023-02-28T00:00:29;6.10;59.10
7970;DHT22;4030;52.362;9.206;2023-02-28T00:05:22;6.20;59.10
7970;DHT22;4030;52.362;9.206;2023-02-28T00:07:50;6.20;59.10
7970;DHT22;4030;52.362;9.206;2023-02-28T00:10:18;6.10;59.40
7970;DHT22;4030;52.362;9.206;2023-02-28T00:12:47;6.10;59.40
7970;DHT22;4030;52.362;9.206;2023-02-28T00:20:06;6.10;59.30
7970;DHT22;4030;52.362;9.206;2023-02-28T00:22:34;6.10;59.40
7970;DHT22;4030;52.362;9.206;2023-02-28T00:25:00;6.20;59.60
7970;DHT22;4030;52.362;9.206;2023-02-28T00:32:19;5.70;59.50
7970;DHT22;4030;52.362;9.206;2023-02-28T00:34:45;6.10;59.80
7970;DHT22;4030;52.362;9.206;2023-02-28T00:37:11;6.20;59.90
7970;DHT22;4030;52.362;9.206;2023-02-28T00:39:37;6.00;59.80
7970;DHT22;4030;52.362;9.206;2023-02-28T00:42:04;5.90;59.80
7970;DHT22;4030;52.362;9.206;2023-02-28T00:46:57;6.10;60.00
7970;DHT22;4030;52.362;9.206;2023-02-28T00:49:23;5.90;59.90
7970;DHT22;4030;52.362;9.206;2023-02-28T00:54:16;5.70;59.70
7970;DHT22;4030;52.362;9.206;2023-02-28T00:56:42;5.60;59.80
7970;DHT22;4030;52.362;9.206;2023-02-28T01:01:34;5.50;59.70
7970;DHT22;4030;52.362;9.206;2023-02-28T01:03:59;5.50;59.70
7970;DHT22;4030;52.362;9.206;2023-02-28T01:06:25;5.90;60.00
7970;DHT22;4030;52.362;9.206;2023-02-28T01:11:17;5.40;59.70
7970;DHT22;4030;52.362;9.206;2023-02-28T01:13:45;5.60;59.90
7970;DHT22;4030;52.362;9.206;2023-02-28T01:16:12;5.60;59.70
7970;DHT22;4030;52.362;9.206;2023-02-28T01:18:38;5.40;59.70
7970;DHT22;4030;52.362;9.206;2023-02-28T01:21:06;5.50;59.80
7970;DHT22;4030;52.362;9.206;2023-02-28T01:26:06;5.50;59.60
7970;DHT22;4030;52.362;9.206;2023-02-28T01:28:34;5.30;59.70
7970;DHT22;4030;52.362;9.206;2023-02-28T01:31:00;5.80;60.10
7970;DHT22;4030;52.362;9.206;2023-02-28T01:33:26;5.50;59.80
7970;DHT22;4030;52.362;9.206;2023-02-28T01:36:02;5.60;59.70
7970;DHT22;4030;52.362;9.206;2023-02-28T01:38:33;5.40;59.60
7970;DHT22;4030;52.362;9.206;2023-02-28T01:43:29;4.90;59.20
7970;DHT22;4030;52.362;9.206;2023-02-28T01:45:57;5.30;59.50
7970;DHT22;4030;52.362;9.206;2023-02-28T01:48:30;5.30;59.50
7970;DHT22;4030;52.362;9.206;2023-02-28T01:51:00;5.30;59.50
7970;DHT22;4030;52.362;9.206;2023-02-28T01:53:37;5.30;59.50
7970;DHT22;4030;52.362;9.206;2023-02-28T01:56:07;5.30;59.70
7970;DHT22;4030;52.362;9.206;2023-02-28T01:58:35;5.00;59.70
7970;DHT22;4030;52.362;9.206;2023-02-28T02:01:01;5.00;59.70
7970;DHT22;4030;52.362;9.206;2023-02-28T02:03:29;5.20;59.60
7970;DHT22;4030;52.362;9.206;2023-02-28T02:05:56;5.50;60.10
7970;DHT22;4030;52.362;9.206;2023-02-28T02:08:24;5.20;59.70
7970;DHT22;4030;52.362;9.206;2023-02-28T02:10:57;5.20;59.70
7970;DHT22;4030;52.362;9.206;2023-02-28T02:25:43;5.10;59.80
7970;DHT22;4030;52.362;9.206;2023-02-28T02:28:46;4.90;60.00
7970;DHT22;4030;52.362;9.206;2023-02-28T02:37:59;5.20;60.20
7970;DHT22;4030;52.362;9.206;2023-02-28T02:43:49;4.90;60.00
7970;DHT22;4030;52.362;9.206;2023-02-28T02:46:22;4.80;60.10
7970;DHT22;4030;52.362;9.206;2023-02-28T02:48:52;5.10;60.40
7970;DHT22;4030;52.362;9.206;2023-02-28T02:51:22;5.20;60.60
7970;DHT22;4030;52.362;9.206;2023-02-28T02:54:08;5.20;60.60
7970;DHT22;4030;52.362;9.206;2023-02-28T02:56:42;4.90;60.30
7970;DHT22;4030;52.362;9.206;2023-02-28T02:59:12;4.90;60.10
7970;DHT22;4030;52.362;9.206;2023-02-28T03:01:41;4.80;59.90
7970;DHT22;4030;52.362;9.206;2023-02-28T03:04:14;4.60;60.00
7970;DHT22;4030;52.362;9.206;2023-02-28T03:11:35;6.10;61.10
7970;DHT22;4030;52.362;9.206;2023-02-28T03:17:30;5.00;60.20
7970;DHT22;4030;52.362;9.206;2023-02-28T03:21:13;4.50;59.80
7970;DHT22;4030;52.362;9.206;2023-02-28T03:24:03;4.40;59.90
7970;DHT22;4030;52.362;9.206;2023-02-28T03:26:39;4.70;60.10
7970;DHT22;4030;52.362;9.206;2023-02-28T03:29:19;4.30;59.80
7970;DHT22;4030;52.362;9.206;2023-02-28T03:32:15;4.80;60.00
7970;DHT22;4030;52.362;9.206;2023-02-28T03:34:54;4.50;59.70
7970;DHT22;4030;52.362;9.206;2023-02-28T03:37:24;4.70;60.00
7970;DHT22;4030;52.362;9.206;2023-02-28T03:39:57;4.40;59.90
7970;DHT22;4030;52.362;9.206;2023-02-28T03:42:28;4.40;59.70
7970;DHT22;4030;52.362;9.206;2023-02-28T03:45:04;4.50;59.70
7970;DHT22;4030;52.362;9.206;2023-02-28T03:47:41;4.20;59.70
7970;DHT22;4030;52.362;9.206;2023-02-28T03:50:18;4.30;59.60
7970;DHT22;4030;52.362;9.206;2023-02-28T03:53:11;4.60;60.00
7970;DHT22;4030;52.362;9.206;2023-02-28T03:55:46;4.40;59.70
7970;DHT22;4030;52.362;9.206;2023-02-28T03:58:33;4.20;59.70
7970;DHT22;4030;52.362;9.206;2023-02-28T04:01:13;4.20;59.70
7970;DHT22;4030;52.362;9.206;2023-02-28T04:03:49;4.50;59.90
7970;DHT22;4030;52.362;9.206;2023-02-28T04:06:20;4.20;59.50
7970;DHT22;4030;52.362;9.206;2023-02-28T04:08:48;4.10;59.60
7970;DHT22;4030;52.362;9.206;2023-02-28T04:28:33;4.00;59.30
7970;DHT22;4030;52.362;9.206;2023-02-28T04:31:04;4.20;59.60
7970;DHT22;4030;52.362;9.206;2023-02-28T04:33:31;4.00;59.30
7970;DHT22;4030;52.362;9.206;2023-02-28T04:36:03;4.00;59.50
7970;DHT22;4030;52.362;9.206;2023-02-28T04:38:34;4.00;59.50
7970;DHT22;4030;52.362;9.206;2023-02-28T04:41:01;3.90;59.40
7970;DHT22;4030;52.362;9.206;2023-02-28T04:43:28;3.90;59.40
7970;DHT22;4030;52.362;9.206;2023-02-28T04:45:56;3.90;59.30
7970;DHT22;4030;52.362;9.206;2023-02-28T04:48:23;4.00;59.40
7970;DHT22;4030;52.362;9.206;2023-02-28T04:50:50;3.80;59.40
7970;DHT22;4030;52.362;9.206;2023-02-28T04:53:16;3.60;59.20
7970;DHT22;4030;52.362;9.206;2023-02-28T04:55:42;3.70;59.20
7970;DHT22;4030;52.362;9.206;2023-02-28T04:58:08;4.00;59.40
7970;DHT22;4030;52.362;9.206;2023-02-28T05:00:33;4.00;59.40
7970;DHT22;4030;52.362;9.206;2023-02-28T05:10:19;3.70;59.40
7970;DHT22;4030;52.362;9.206;2023-02-28T05:12:44;3.70;59.40
7970;DHT22;4030;52.362;9.206;2023-02-28T05:15:15;3.70;59.20
7970;DHT22;4030;52.362;9.206;2023-02-28T05:17:41;3.60;59.30
7970;DHT22;4030;52.362;9.206;2023-02-28T05:20:08;3.90;59.70
7970;DHT22;4030;52.362;9.206;2023-02-28T05:22:39;3.50;59.30
7970;DHT22;4030;52.362;9.206;2023-02-28T05:25:06;3.80;59.60
7970;DHT22;4030;52.362;9.206;2023-02-28T05:27:32;3.70;59.40
7970;DHT22;4030;52.362;9.206;2023-02-28T05:32:24;3.60;59.30
7970;DHT22;4030;52.362;9.206;2023-02-28T05:39:42;3.40;59.20
7970;DHT22;4030;52.362;9.206;2023-02-28T05:44:35;3.30;59.20
7970;DHT22;4030;52.362;9.206;2023-02-28T05:47:01;3.40;59.40
7970;DHT22;4030;52.362;9.206;2023-02-28T05:49:27;3.40;59.40
7970;DHT22;4030;52.362;9.206;2023-02-28T05:51:53;3.50;59.50
7970;DHT22;4030;52.362;9.206;2023-02-28T05:54:19;3.40;59.40
7970;DHT22;4030;52.362;9.206;2023-02-28T05:59:11;3.60;59.40
7970;DHT22;4030;52.362;9.206;2023-02-28T06:01:43;3.40;59.20
7970;DHT22;4030;52.362;9.206;2023-02-28T06:04:18;3.30;59.40
7970;DHT22;4030;52.362;9.206;2023-02-28T06:06:45;3.50;59.50
7970;DHT22;4030;52.362;9.206;2023-02-28T06:09:12;3.10;59.20
7970;DHT22;4030;52.362;9.206;2023-02-28T06:11:38;3.30;59.30
7970;DHT22;4030;52.362;9.206;2023-02-28T06:16:31;3.10;59.20
7970;DHT22;4030;52.362;9.206;2023-02-28T06:19:01;3.40;59.40
7970;DHT22;4030;52.362;9.206;2023-02-28T06:21:28;4.30;59.90
7970;DHT22;4030;52.362;9.206;2023-02-28T06:23:54;3.10;59.20
7970;DHT22;4030;52.362;9.206;2023-02-28T06:26:21;3.10;59.20
7970;DHT22;4030;52.362;9.206;2023-02-28T06:28:47;3.10;59.10
7970;DHT22;4030;52.362;9.206;2023-02-28T06:31:15;3.40;59.40
7970;DHT22;4030;52.362;9.206;2023-02-28T06:33:42;3.10;59.10
7970;DHT22;4030;52.362;9.206;2023-02-28T06:36:09;3.30;58.90
7970;DHT22;4030;52.362;9.206;2023-02-28T06:38:36;3.20;58.90
7970;DHT22;4030;52.362;9.206;2023-02-28T06:43:30;3.20;59.20
7970;DHT22;4030;52.362;9.206;2023-02-28T06:46:00;3.50;59.40
7970;DHT22;4030;52.362;9.206;2023-02-28T06:48:27;3.30;58.90
7970;DHT22;4030;52.362;9.206;2023-02-28T06:51:08;3.10;59.00
7970;DHT22;4030;52.362;9.206;2023-02-28T06:56:09;3.10;58.90
7970;DHT22;4030;52.362;9.206;2023-02-28T06:58:37;3.40;59.20
7970;DHT22;4030;52.362;9.206;2023-02-28T07:01:04;3.40;59.20
7970;DHT22;4030;52.362;9.206;2023-02-28T07:03:31;3.30;58.80
7970;DHT22;4030;52.362;9.206;2023-02-28T07:08:26;3.30;58.90
7970;DHT22;4030;52.362;9.206;2023-02-28T07:10:55;3.50;59.30
7970;DHT22;4030;52.362;9.206;2023-02-28T07:13:22;3.20;59.10
7970;DHT22;4030;52.362;9.206;2023-02-28T07:16:02;3.60;59.40
7970;DHT22;4030;52.362;9.206;2023-02-28T07:18:30;3.50;59.40
7970;DHT22;4030;52.362;9.206;2023-02-28T07:20:56;3.40;59.40
7970;DHT22;4030;52.362;9.206;2023-02-28T07:23:22;3.40;59.40
7970;DHT22;4030;52.362;9.206;2023-02-28T07:25:50;3.40;59.10
7970;DHT22;4030;52.362;9.206;2023-02-28T07:28:16;3.20;59.30
7970;DHT22;4030;52.362;9.206;2023-02-28T07:30:42;3.60;59.60
7970;DHT22;4030;52.362;9.206;2023-02-28T07:33:08;3.60;59.70
7970;DHT22;4030;52.362;9.206;2023-02-28T07:35:33;3.40;59.60
7970;DHT22;4030;52.362;9.206;2023-02-28T07:38:00;3.60;59.50
7970;DHT22;4030;52.362;9.206;2023-02-28T07:40:26;3.90;60.00
7970;DHT22;4030;52.362;9.206;2023-02-28T07:42:52;3.70;60.00
7970;DHT22;4030;52.362;9.206;2023-02-28T07:47:45;3.60;59.90
7970;DHT22;4030;52.362;9.206;2023-02-28T07:50:13;3.90;60.10
7970;DHT22;4030;52.362;9.206;2023-02-28T07:55:07;3.80;60.00
7970;DHT22;4030;52.362;9.206;2023-02-28T08:02:26;3.70;60.50
7970;DHT22;4030;52.362;9.206;2023-02-28T08:09:44;4.50;62.10
7970;DHT22;4030;52.362;9.206;2023-02-28T08:12:11;4.50;62.10
7970;DHT22;4030;52.362;9.206;2023-02-28T08:14:37;4.40;62.20
7970;DHT22;4030;52.362;9.206;2023-02-28T08:17:03;4.70;62.70
7970;DHT22;4030;52.362;9.206;2023-02-28T08:19:29;4.80;62.90
7970;DHT22;4030;52.362;9.206;2023-02-28T08:21:56;4.90;62.90
7970;DHT22;4030;52.362;9.206;2023-02-28T08:24:22;4.80;63.00
7970;DHT22;4030;52.362;9.206;2023-02-28T08:26:48;4.70;63.00
7970;DHT22;4030;52.362;9.206;2023-02-28T08:29:13;4.90;63.10
7970;DHT22;4030;52.362;9.206;2023-02-28T08:31:39;4.70;63.00
7970;DHT22;4030;52.362;9.206;2023-02-28T08:34:06;5.00;63.10
7970;DHT22;4030;52.362;9.206;2023-02-28T08:46:19;5.40;64.00
7970;DHT22;4030;52.362;9.206;2023-02-28T08:48:44;5.60;64.30
7970;DHT22;4030;52.362;9.206;2023-02-28T08:51:15;5.60;64.60
7970;DHT22;4030;52.362;9.206;2023-02-28T08:53:44;5.60;64.60
7970;DHT22;4030;52.362;9.206;2023-02-28T08:56:12;5.00;64.20
7970;DHT22;4030;52.362;9.206;2023-02-28T08:58:39;5.90;65.30
7970;DHT22;4030;52.362;9.206;2023-02-28T09:01:10;6.10;65.60
7970;DHT22;4030;52.362;9.206;2023-02-28T09:03:39;6.50;66.30
7970;DHT22;4030;52.362;9.206;2023-02-28T09:08:33;6.50;66.30
7970;DHT22;4030;52.362;9.206;2023-02-28T09:13:26;6.50;66.10
7970;DHT22;4030;52.362;9.206;2023-02-28T09:23:11;7.30;65.70
7970;DHT22;4030;52.362;9.206;2023-02-28T09:25:46;7.60;65.70
7970;DHT22;4030;52.362;9.206;2023-02-28T09:30:41;8.10;64.90
7970;DHT22;4030;52.362;9.206;2023-02-28T09:35:33;8.40;64.00
7970;DHT22;4030;52.362;9.206;2023-02-28T09:40:26;8.90;63.20
7970;DHT22;4030;52.362;9.206;2023-02-28T09:42:53;9.10;62.90
7970;DHT22;4030;52.362;9.206;2023-02-28T09:45:36;9.40;62.60
7970;DHT22;4030;52.362;9.206;2023-02-28T09:48:11;9.60;62.20
7970;DHT22;4030;52.362;9.206;2023-02-28T09:50:41;10.00;60.80
7970;DHT22;4030;52.362;9.206;2023-02-28T09:53:22;10.10;60.40
7970;DHT22;4030;52.362;9.206;2023-02-28T09:56:18;10.30;60.20
7970;DHT22;4030;52.362;9.206;2023-02-28T09:58:56;10.50;60.10
7970;DHT22;4030;52.362;9.206;2023-02-28T10:01:42;10.70;60.10
7970;DHT22;4030;52.362;9.206;2023-02-28T10:09:56;10.90;60.30
7970;DHT22;4030;52.362;9.206;2023-02-28T10:12:23;10.90;60.40
7970;DHT22;4030;52.362;9.206;2023-02-28T10:14:52;11.00;60.40
7970;DHT22;4030;52.362;9.206;2023-02-28T10:17:26;11.10;60.40
7970;DHT22;4030;52.362;9.206;2023-02-28T10:20:10;11.20;60.30
7970;DHT22;4030;52.362;9.206;2023-02-28T10:25:39;11.50;60.30
7970;DHT22;4030;52.362;9.206;2023-02-28T10:28:09;11.50;60.20
7970;DHT22;4030;52.362;9.206;2023-02-28T10:30:42;11.60;60.10
7970;DHT22;4030;52.362;9.206;2023-02-28T10:33:22;11.60;60.10
7970;DHT22;4030;52.362;9.206;2023-02-28T10:35:51;11.60;59.90
7970;DHT22;4030;52.362;9.206;2023-02-28T10:38:24;11.80;60.20
7970;DHT22;4030;52.362;9.206;2023-02-28T10:40:51;11.80;60.10
7970;DHT22;4030;52.362;9.206;2023-02-28T10:46:16;11.90;60.20
7970;DHT22;4030;52.362;9.206;2023-02-28T10:49:01;12.00;60.20
7970;DHT22;4030;52.362;9.206;2023-02-28T10:51:36;12.00;60.10
7970;DHT22;4030;52.362;9.206;2023-02-28T10:54:04;12.20;60.30
7970;DHT22;4030;52.362;9.206;2023-02-28T10:56:30;12.10;60.20
7970;DHT22;4030;52.362;9.206;2023-02-28T11:04:32;12.50;60.30
7970;DHT22;4030;52.362;9.206;2023-02-28T11:07:27;12.50;60.00
7970;DHT22;4030;52.362;9.206;2023-02-28T11:09:55;12.60;60.00
7970;DHT22;4030;52.362;9.206;2023-02-28T11:12:29;12.80;60.10
7970;DHT22;4030;52.362;9.206;2023-02-28T11:15:03;12.80;60.10
7970;DHT22;4030;52.362;9.206;2023-02-28T11:17:54;13.00;60.20
7970;DHT22;4030;52.362;9.206;2023-02-28T11:20:25;13.30;60.30
7970;DHT22;4030;52.362;9.206;2023-02-28T11:22:54;13.40;60.20
7970;DHT22;4030;52.362;9.206;2023-02-28T11:25:26;13.40;59.90
7970;DHT22;4030;52.362;9.206;2023-02-28T11:27:58;13.70;59.90
7970;DHT22;4030;52.362;9.206;2023-02-28T11:30:36;13.90;59.80
7970;DHT22;4030;52.362;9.206;2023-02-28T11:35:53;13.90;59.20
7970;DHT22;4030;52.362;9.206;2023-02-28T11:46:49;14.20;58.20
7970;DHT22;4030;52.362;9.206;2023-02-28T12:01:36;14.70;57.60
7970;DHT22;4030;52.362;9.206;2023-02-28T12:04:42;14.80;57.50
7970;DHT22;4030;52.362;9.206;2023-02-28T12:07:21;14.90;57.30
7970;DHT22;4030;52.362;9.206;2023-02-28T12:18:26;15.50;56.70
7970;DHT22;4030;52.362;9.206;2023-02-28T12:21:15;15.50;56.30
7970;DHT22;4030;52.362;9.206;2023-02-28T12:23:55;15.90;56.30
7970;DHT22;4030;52.362;9.206;2023-02-28T12:26:46;16.20;56.00
7970;DHT22;4030;52.362;9.206;2023-02-28T12:29:26;16.50;55.40
7970;DHT22;4030;52.362;9.206;2023-02-28T12:32:04;16.70;54.90
7970;DHT22;4030;52.362;9.206;2023-02-28T12:35:04;17.00;55.00
7970;DHT22;4030;52.362;9.206;2023-02-28T12:37:50;17.30;54.80
7970;DHT22;4030;52.362;9.206;2023-02-28T12:40:23;17.40;55.20
7970;DHT22;4030;52.362;9.206;2023-02-28T12:42:59;17.60;54.70
7970;DHT22;4030;52.362;9.206;2023-02-28T12:45:53;17.80;54.30
7970;DHT22;4030;52.362;9.206;2023-02-28T12:51:03;18.30;53.30
7970;DHT22;4030;52.362;9.206;2023-02-28T12:53:41;18.60;53.00
7970;DHT22;4030;52.362;9.206;2023-02-28T12:56:45;18.80;52.20
7970;DHT22;4030;52.362;9.206;2023-02-28T12:59:25;19.10;51.20
7970;DHT22;4030;52.362;9.206;2023-02-28T13:01:57;19.20;50.70
7970;DHT22;4030;52.362;9.206;2023-02-28T13:12:52;19.10;52.80
7970;DHT22;4030;52.362;9.206;2023-02-28T13:15:25;18.90;53.30
7970;DHT22;4030;52.362;9.206;2023-02-28T13:17:56;18.60;53.80
7970;DHT22;4030;52.362;9.206;2023-02-28T13:20:29;18.50;54.70
7970;DHT22;4030;52.362;9.206;2023-02-28T13:22:59;18.30;55.30
7970;DHT22;4030;52.362;9.206;2023-02-28T13:28:12;18.10;55.80
7970;DHT22;4030;52.362;9.206;2023-02-28T13:36:22;18.00;55.30
7970;DHT22;4030;52.362;9.206;2023-02-28T13:38:57;18.00;55.50
7970;DHT22;4030;52.362;9.206;2023-02-28T13:44:19;18.10;55.30
7970;DHT22;4030;52.362;9.206;2023-02-28T13:49:28;18.10;55.30
7970;DHT22;4030;52.362;9.206;2023-02-28T13:58:06;18.10;54.20
7970;DHT22;4030;52.362;9.206;2023-02-28T14:00:52;18.00;53.60
7970;DHT22;4030;52.362;9.206;2023-02-28T14:06:33;18.30;52.60
7970;DHT22;4030;52.362;9.206;2023-02-28T14:09:02;18.20;52.00
7970;DHT22;4030;52.362;9.206;2023-02-28T14:11:43;18.40;51.70
7970;DHT22;4030;52.362;9.206;2023-02-28T14:15:23;18.40;51.00
7970;DHT22;4030;52.362;9.206;2023-02-28T14:17:16;18.50;50.50
7970;DHT22;4030;52.362;9.206;2023-02-28T14:19:45;18.70;49.60
7970;DHT22;4030;52.362;9.206;2023-02-28T14:30:45;19.20;46.40
7970;DHT22;4030;52.362;9.206;2023-02-28T14:33:29;19.50;45.40
7970;DHT22;4030;52.362;9.206;2023-02-28T14:36:23;19.50;44.40
7970;DHT22;4030;52.362;9.206;2023-02-28T14:39:22;19.60;42.90
7970;DHT22;4030;52.362;9.206;2023-02-28T14:41:47;19.80;42.30
7970;DHT22;4030;52.362;9.206;2023-02-28T14:46:41;20.00;39.70
7970;DHT22;4030;52.362;9.206;2023-02-28T14:49:20;20.40;38.30
7970;DHT22;4030;52.362;9.206;2023-02-28T14:52:02;21.20;36.30
7970;DHT22;4030;52.362;9.206;2023-02-28T14:54:36;22.10;34.10
7970;DHT22;4030;52.362;9.206;2023-02-28T14:57:03;22.60;32.40
7970;DHT22;4030;52.362;9.206;2023-02-28T14:59:34;23.10;31.30
7970;DHT22;4030;52.362;9.206;2023-02-28T15:02:21;23.30;30.50
7970;DHT22;4030;52.362;9.206;2023-02-28T15:04:59;22.70;31.40
7970;DHT22;4030;52.362;9.206;2023-02-28T15:07:26;21.90;31.90
7970;DHT22;4030;52.362;9.206;2023-02-28T15:10:17;21.30;32.30
7970;DHT22;4030;52.362;9.206;2023-02-28T15:12:54;20.80;33.40
7970;DHT22;4030;52.362;9.206;2023-02-28T15:15:26;20.40;33.80
7970;DHT22;4030;52.362;9.206;2023-02-28T15:18:03;19.90;34.20
7970;DHT22;4030;52.362;9.206;2023-02-28T15:20:31;19.70;34.10
7970;DHT22;4030;52.362;9.206;2023-02-28T15:22:59;19.40;34.20
7970;DHT22;4030;52.362;9.206;2023-02-28T15:25:25;19.20;34.20
7970;DHT22;4030;52.362;9.206;2023-02-28T15:27:55;19.20;34.50
7970;DHT22;4030;52.362;9.206;2023-02-28T15:30:28;19.50;34.20
7970;DHT22;4030;52.362;9.206;2023-02-28T15:33:20;20.50;32.60
7970;DHT22;4030;52.362;9.206;2023-02-28T15:35:51;21.60;30.90
7970;DHT22;4030;52.362;9.206;2023-02-28T15:38:24;22.30;29.40
7970;DHT22;4030;52.362;9.206;2023-02-28T15:40:56;22.90;28.90
7970;DHT22;4030;52.362;9.206;2023-02-28T15:43:31;23.20;28.20
7970;DHT22;4030;52.362;9.206;2023-02-28T15:46:08;23.50;27.70
7970;DHT22;4030;52.362;9.206;2023-02-28T15:49:17;23.80;27.20
7970;DHT22;4030;52.362;9.206;2023-02-28T15:51:44;24.00;27.10
7970;DHT22;4030;52.362;9.206;2023-02-28T15:54:22;23.60;27.20
7970;DHT22;4030;52.362;9.206;2023-02-28T15:56:52;23.00;27.70
7970;DHT22;4030;52.362;9.206;2023-02-28T15:59:28;22.10;28.00
7970;DHT22;4030;52.362;9.206;2023-02-28T16:04:36;20.50;29.40
7970;DHT22;4030;52.362;9.206;2023-02-28T16:07:11;19.60;30.00
7970;DHT22;4030;52.362;9.206;2023-02-28T16:09:38;18.70;31.40
7970;DHT22;4030;52.362;9.206;2023-02-28T16:12:03;18.00;32.30
7970;DHT22;4030;52.362;9.206;2023-02-28T16:14:31;17.40;33.40
7970;DHT22;4030;52.362;9.206;2023-02-28T16:17:03;16.90;34.10
7970;DHT22;4030;52.362;9.206;2023-02-28T16:19:31;16.60;34.90
7970;DHT22;4030;52.362;9.206;2023-02-28T16:21:57;16.30;35.40
7970;DHT22;4030;52.362;9.206;2023-02-28T16:24:23;16.00;36.00
7970;DHT22;4030;52.362;9.206;2023-02-28T16:26:51;15.70;36.20
7970;DHT22;4030;52.362;9.206;2023-02-28T16:29:30;15.40;36.50
7970;DHT22;4030;52.362;9.206;2023-02-28T16:31:56;15.40;36.90
7970;DHT22;4030;52.362;9.206;2023-02-28T16:34:24;15.10;37.10
7970;DHT22;4030;52.362;9.206;2023-02-28T16:36:51;14.80;37.50
7970;DHT22;4030;52.362;9.206;2023-02-28T16:39:17;14.70;37.60
7970;DHT22;4030;52.362;9.206;2023-02-28T16:41:45;14.40;37.80
7970;DHT22;4030;52.362;9.206;2023-02-28T16:44:26;14.40;38.30
7970;DHT22;4030;52.362;9.206;2023-02-28T16:46:53;14.20;38.60
7970;DHT22;4030;52.362;9.206;2023-02-28T16:49:19;14.10;38.90
7970;DHT22;4030;52.362;9.206;2023-02-28T16:51:45;14.00;39.10
7970;DHT22;4030;52.362;9.206;2023-02-28T16:56:39;13.70;39.60
7970;DHT22;4030;52.362;9.206;2023-02-28T16:59:09;13.60;39.90
7970;DHT22;4030;52.362;9.206;2023-02-28T17:01:35;13.50;40.10
7970;DHT22;4030;52.362;9.206;2023-02-28T17:04:01;13.40;40.20
7970;DHT22;4030;52.362;9.206;2023-02-28T17:06:29;13.30;40.40
7970;DHT22;4030;52.362;9.206;2023-02-28T17:08:56;13.10;40.40
7970;DHT22;4030;52.362;9.206;2023-02-28T17:11:25;13.00;40.60
7970;DHT22;4030;52.362;9.206;2023-02-28T17:16:34;12.90;41.10
7970;DHT22;4030;52.362;9.206;2023-02-28T17:19:04;12.80;41.30
7970;DHT22;4030;52.362;9.206;2023-02-28T17:21:31;12.70;41.50
7970;DHT22;4030;52.362;9.206;2023-02-28T17:23:58;12.70;41.90
7970;DHT22;4030;52.362;9.206;2023-02-28T17:26:25;12.50;41.90
7970;DHT22;4030;52.362;9.206;2023-02-28T17:28:52;12.50;42.10
7970;DHT22;4030;52.362;9.206;2023-02-28T17:31:19;12.40;42.20
7970;DHT22;4030;52.362;9.206;2023-02-28T17:33:44;12.20;42.20
7970;DHT22;4030;52.362;9.206;2023-02-28T17:36:15;12.20;42.30
7970;DHT22;4030;52.362;9.206;2023-02-28T17:38:42;12.10;42.30
7970;DHT22;4030;52.362;9.206;2023-02-28T17:41:10;12.00;42.50
7970;DHT22;4030;52.362;9.206;2023-02-28T17:46:02;11.90;42.70
7970;DHT22;4030;52.362;9.206;2023-02-28T17:50:57;11.70;42.90
7970;DHT22;4030;52.362;9.206;2023-02-28T17:53:22;11.60;42.90
7970;DHT22;4030;52.362;9.206;2023-02-28T17:55:51;11.60;42.90
7970;DHT22;4030;52.362;9.206;2023-02-28T17:58:17;11.50;43.10
7970;DHT22;4030;52.362;9.206;2023-02-28T18:03:11;11.30;43.30
7970;DHT22;4030;52.362;9.206;2023-02-28T18:05:38;11.30;43.40
7970;DHT22;4030;52.362;9.206;2023-02-28T18:08:04;11.30;43.60
7970;DHT22;4030;52.362;9.206;2023-02-28T18:10:30;11.10;43.60
7970;DHT22;4030;52.362;9.206;2023-02-28T18:12:58;11.00;43.70
7970;DHT22;4030;52.362;9.206;2023-02-28T18:15:24;11.00;43.80
7970;DHT22;4030;52.362;9.206;2023-02-28T18:17:50;10.90;43.90
7970;DHT22;4030;52.362;9.206;2023-02-28T18:20:17;10.80;43.90
7970;DHT22;4030;52.362;9.206;2023-02-28T18:22:43;10.80;44.00
7970;DHT22;4030;52.362;9.206;2023-02-28T18:25:10;10.60;44.00
7970;DHT22;4030;52.362;9.206;2023-02-28T18:27:39;10.60;44.20
7970;DHT22;4030;52.362;9.206;2023-02-28T18:30:05;10.70;44.40
7970;DHT22;4030;52.362;9.206;2023-02-28T18:32:31;10.60;44.30
7970;DHT22;4030;52.362;9.206;2023-02-28T18:34:56;10.50;44.40
7970;DHT22;4030;52.362;9.206;2023-02-28T18:37:22;10.40;44.50
7970;DHT22;4030;52.362;9.206;2023-02-28T18:42:14;10.30;44.60
7970;DHT22;4030;52.362;9.206;2023-02-28T18:44:40;10.40;44.70
7970;DHT22;4030;52.362;9.206;2023-02-28T18:47:06;10.30;44.70
7970;DHT22;4030;52.362;9.206;2023-02-28T18:49:32;10.10;44.70
7970;DHT22;4030;52.362;9.206;2023-02-28T18:52:00;10.10;44.80
7970;DHT22;4030;52.362;9.206;2023-02-28T18:54:27;10.20;45.00
7970;DHT22;4030;52.362;9.206;2023-02-28T18:56:52;10.00;44.90
7970;DHT22;4030;52.362;9.206;2023-02-28T19:01:46;9.80;45.80
7970;DHT22;4030;52.362;9.206;2023-02-28T19:04:12;9.80;45.90
7970;DHT22;4030;52.362;9.206;2023-02-28T19:06:39;9.60;45.90
7970;DHT22;4030;52.362;9.206;2023-02-28T19:13:59;9.70;46.20
7970;DHT22;4030;52.362;9.206;2023-02-28T19:16:26;9.50;46.20
7970;DHT22;4030;52.362;9.206;2023-02-28T19:18:53;9.60;46.40
7970;DHT22;4030;52.362;9.206;2023-02-28T19:21:20;9.50;46.30
7970;DHT22;4030;52.362;9.206;2023-02-28T19:26:16;9.40;46.40
7970;DHT22;4030;52.362;9.206;2023-02-28T19:28:46;9.30;46.40
7970;DHT22;4030;52.362;9.206;2023-02-28T19:31:17;9.30;46.60
7970;DHT22;4030;52.362;9.206;2023-02-28T19:33:46;9.40;46.70
7970;DHT22;4030;52.362;9.206;2023-02-28T19:36:12;9.30;46.60
7970;DHT22;4030;52.362;9.206;2023-02-28T19:38:39;9.20;46.70
7970;DHT22;4030;52.362;9.206;2023-02-28T19:41:07;9.30;46.90
7970;DHT22;4030;52.362;9.206;2023-02-28T19:43:34;9.10;46.80
7970;DHT22;4030;52.362;9.206;2023-02-28T19:46:00;9.00;46.70
7970;DHT22;4030;52.362;9.206;2023-02-28T19:50:57;8.90;46.80
7970;DHT22;4030;52.362;9.206;2023-02-28T19:55:51;8.80;46.70
7970;DHT22;4030;52.362;9.206;2023-02-28T19:58:18;8.90;46.90
7970;DHT22;4030;52.362;9.206;2023-02-28T20:00:44;8.90;47.00
7970;DHT22;4030;52.362;9.206;2023-02-28T20:05:36;9.00;47.20
7970;DHT22;4030;52.362;9.206;2023-02-28T20:08:03;8.60;46.90
7970;DHT22;4030;52.362;9.206;2023-02-28T20:10:28;8.70;47.00
7970;DHT22;4030;52.362;9.206;2023-02-28T20:12:55;8.60;47.00
7970;DHT22;4030;52.362;9.206;2023-02-28T20:15:21;8.50;47.00
7970;DHT22;4030;52.362;9.206;2023-02-28T20:17:47;8.40;46.80
7970;DHT22;4030;52.362;9.206;2023-02-28T20:22:39;8.70;47.30
7970;DHT22;4030;52.362;9.206;2023-02-28T20:25:05;8.40;47.00
7970;DHT22;4030;52.362;9.206;2023-02-28T20:27:32;8.30;47.20
7970;DHT22;4030;52.362;9.206;2023-02-28T20:30:00;8.40;47.20
7970;DHT22;4030;52.362;9.206;2023-02-28T20:34:52;8.30;47.30
7970;DHT22;4030;52.362;9.206;2023-02-28T20:39:44;8.00;47.20
7970;DHT22;4030;52.362;9.206;2023-02-28T20:42:09;8.00;47.20
7970;DHT22;4030;52.362;9.206;2023-02-28T20:44:35;8.20;47.40
7970;DHT22;4030;52.362;9.206;2023-02-28T20:56:46;8.00;47.80
7970;DHT22;4030;52.362;9.206;2023-02-28T20:59:12;7.80;47.70
7970;DHT22;4030;52.362;9.206;2023-02-28T21:01:38;7.80;47.80
7970;DHT22;4030;52.362;9.206;2023-02-28T21:04:06;7.80;47.90
7970;DHT22;4030;52.362;9.206;2023-02-28T21:06:36;7.80;47.90
7970;DHT22;4030;52.362;9.206;2023-02-28T21:09:04;7.80;48.00
7970;DHT22;4030;52.362;9.206;2023-02-28T21:11:32;7.90;48.20
7970;DHT22;4030;52.362;9.206;2023-02-28T21:14:02;7.70;48.00
7970;DHT22;4030;52.362;9.206;2023-02-28T21:18:56;7.80;48.30
7970;DHT22;4030;52.362;9.206;2023-02-28T21:21:30;7.60;48.10
7970;DHT22;4030;52.362;9.206;2023-02-28T21:23:57;7.80;48.40
7970;DHT22;4030;52.362;9.206;2023-02-28T21:26:23;7.50;48.30
7970;DHT22;4030;52.362;9.206;2023-02-28T21:28:51;7.80;48.50